createdAt,value
2018-01-24T00:01:25.149Z,88.00
2018-01-24T00:03:52.691Z,87.90
2018-01-24T00:06:21.027Z,88.80
2018-01-24T00:08:48.647Z,88.80
2018-01-24T00:11:16.215Z,90.10
2018-01-24T00:13:43.798Z,88.60
2018-01-24T00:16:11.341Z,89.30
2018-01-24T00:18:38.923Z,88.80
2018-01-24T00:21:06.468Z,90.10
2018-01-24T00:23:34.048Z,89.60
2018-01-24T00:26:01.596Z,89.30
2018-01-24T00:28:29.145Z,90.00
2018-01-24T00:30:56.704Z,89.30
2018-01-24T00:33:24.257Z,88.50
2018-01-24T00:35:51.821Z,88.70
2018-01-24T00:38:19.384Z,89.20
2018-01-24T00:40:46.944Z,89.70
2018-01-24T00:43:14.506Z,89.60
2018-01-24T00:45:42.096Z,88.60
2018-01-24T00:48:09.664Z,89.10
2018-01-24T00:50:37.228Z,88.70
2018-01-24T00:53:04.790Z,88.90
2018-01-24T00:55:32.328Z,88.80
2018-01-24T00:57:59.906Z,88.60
2018-01-24T01:00:27.464Z,88.10
2018-01-24T01:02:55.038Z,88.60
2018-01-24T01:05:23.359Z,88.50
2018-01-24T01:07:50.942Z,88.50
2018-01-24T01:10:18.497Z,89.10
2018-01-24T01:12:46.077Z,88.70
2018-01-24T01:15:13.633Z,88.80
2018-01-24T01:17:41.185Z,89.10
2018-01-24T01:20:08.790Z,88.80
2018-01-24T01:22:36.345Z,89.70
2018-01-24T01:25:03.918Z,89.70
2018-01-24T01:27:31.490Z,89.70
2018-01-24T01:29:59.068Z,89.80
2018-01-24T01:32:26.634Z,90.00
2018-01-24T01:34:54.234Z,90.00
2018-01-24T01:37:22.567Z,90.30
2018-01-24T01:39:50.135Z,90.30
2018-01-24T01:42:17.695Z,90.20
2018-01-24T01:44:45.248Z,90.30
2018-01-24T01:47:12.807Z,90.50
2018-01-24T01:49:40.380Z,90.40
2018-01-24T01:52:07.939Z,90.50
2018-01-24T01:54:35.492Z,90.70
2018-01-24T01:57:03.077Z,90.70
2018-01-24T01:59:31.382Z,90.60
2018-01-24T02:01:58.919Z,90.40
2018-01-24T02:04:27.263Z,90.40
2018-01-24T02:06:54.821Z,90.40
2018-01-24T02:09:22.374Z,90.40
2018-01-24T02:11:49.943Z,90.30
2018-01-24T02:14:17.517Z,90.40
2018-01-24T02:16:45.075Z,90.40
2018-01-24T02:19:12.627Z,90.40
2018-01-24T02:21:40.185Z,90.60
2018-01-24T02:24:07.719Z,90.60
2018-01-24T02:26:35.271Z,90.70
2018-01-24T02:29:02.821Z,90.80
2018-01-24T02:31:30.389Z,90.80
2018-01-24T02:33:57.951Z,90.80
2018-01-24T02:36:25.513Z,90.80
2018-01-24T02:39:04.889Z,90.70
2018-01-24T02:41:32.448Z,90.90
2018-01-24T02:43:59.987Z,91.00
2018-01-24T02:46:27.552Z,91.00
2018-01-24T02:48:55.096Z,90.80
2018-01-24T02:51:22.649Z,90.80
2018-01-24T02:53:50.205Z,90.90
2018-01-24T02:56:17.772Z,91.00
2018-01-24T02:58:45.327Z,91.00
2018-01-24T03:01:12.869Z,91.10
2018-01-24T03:03:40.436Z,91.10
2018-01-24T03:06:08.005Z,91.00
2018-01-24T03:08:35.583Z,90.90
2018-01-24T03:11:03.132Z,90.90
2018-01-24T03:13:30.709Z,90.90
2018-01-24T03:15:58.272Z,91.00
2018-01-24T03:18:25.830Z,91.00
2018-01-24T03:20:53.379Z,91.00
2018-01-24T03:23:20.929Z,91.00
2018-01-24T03:25:48.503Z,90.90
2018-01-24T03:28:16.056Z,91.00
2018-01-24T03:30:43.631Z,91.00
2018-01-24T03:33:11.176Z,91.10
2018-01-24T03:35:38.752Z,91.00
2018-01-24T03:38:06.300Z,91.00
2018-01-24T03:40:33.863Z,91.00
2018-01-24T03:43:01.433Z,91.10
2018-01-24T03:45:28.981Z,91.20
2018-01-24T03:47:56.549Z,91.20
2018-01-24T03:50:24.115Z,91.20
2018-01-24T03:52:51.667Z,91.20
2018-01-24T03:55:19.203Z,91.10
2018-01-24T03:57:46.760Z,91.40
2018-01-24T04:00:14.295Z,91.20
2018-01-24T04:02:41.836Z,91.30
2018-01-24T04:05:10.209Z,91.40
2018-01-24T04:07:38.529Z,91.40
2018-01-24T04:10:06.126Z,91.40
2018-01-24T04:12:33.652Z,91.30
2018-01-24T04:15:01.231Z,91.40
2018-01-24T04:17:28.791Z,91.40
2018-01-24T04:19:56.371Z,91.50
2018-01-24T04:22:23.923Z,91.50
2018-01-24T04:24:51.501Z,92.10
2018-01-24T04:27:19.831Z,91.50
2018-01-24T04:29:47.398Z,91.50
2018-01-24T04:32:14.965Z,91.50
2018-01-24T04:34:42.517Z,91.40
2018-01-24T04:37:10.076Z,91.40
2018-01-24T04:39:37.623Z,91.50
2018-01-24T04:42:05.199Z,91.50
2018-01-24T04:44:32.763Z,91.60
2018-01-24T04:47:00.336Z,91.60
2018-01-24T04:49:29.394Z,91.50
2018-01-24T04:51:56.953Z,91.50
2018-01-24T04:54:24.507Z,91.50
2018-01-24T04:56:52.056Z,91.60
2018-01-24T04:59:19.640Z,91.60
2018-01-24T05:01:47.198Z,91.60
2018-01-24T05:04:14.775Z,91.60
2018-01-24T05:06:42.322Z,91.60
2018-01-24T05:09:09.884Z,91.60
2018-01-24T05:11:37.437Z,91.70
2018-01-24T05:14:05.004Z,91.60
2018-01-24T05:16:32.575Z,91.60
2018-01-24T05:19:00.120Z,91.60
2018-01-24T05:21:28.604Z,91.60
2018-01-24T05:23:56.167Z,91.70
2018-01-24T05:26:23.747Z,91.60
2018-01-24T05:28:51.301Z,91.70
2018-01-24T05:31:18.860Z,91.70
2018-01-24T05:33:46.427Z,91.80
2018-01-24T05:36:14.020Z,91.60
2018-01-24T05:38:41.567Z,91.70
2018-01-24T05:41:09.889Z,91.60
2018-01-24T05:43:37.453Z,91.60
2018-01-24T05:46:05.009Z,91.50
2018-01-24T05:48:32.572Z,91.50
2018-01-24T05:51:00.119Z,91.40
2018-01-24T05:53:27.694Z,91.30
2018-01-24T05:55:55.240Z,91.30
2018-01-24T05:58:22.819Z,91.40
2018-01-24T06:00:50.360Z,91.40
2018-01-24T06:03:17.908Z,91.40
2018-01-24T06:05:45.463Z,91.40
2018-01-24T06:08:13.008Z,91.40
2018-01-24T06:10:40.598Z,91.60
2018-01-24T06:13:08.153Z,91.60
2018-01-24T06:15:35.721Z,91.50
2018-01-24T06:18:03.279Z,91.50
2018-01-24T06:20:30.884Z,91.20
2018-01-24T06:22:59.200Z,91.00
2018-01-24T06:25:26.787Z,91.00
2018-01-24T06:27:54.355Z,91.20
2018-01-24T06:30:22.410Z,91.30
2018-01-24T06:32:49.963Z,91.10
2018-01-24T06:35:17.525Z,91.10
2018-01-24T06:37:45.108Z,91.30
2018-01-24T06:40:12.670Z,91.30
2018-01-24T06:42:40.237Z,91.10
2018-01-24T06:45:07.789Z,91.10
2018-01-24T06:47:35.379Z,91.00
2018-01-24T06:50:03.700Z,91.10
2018-01-24T06:52:31.255Z,91.10
2018-01-24T06:54:58.818Z,91.10
2018-01-24T06:57:26.378Z,91.20
2018-01-24T06:59:53.959Z,91.20
2018-01-24T07:02:21.514Z,91.10
2018-01-24T07:04:49.091Z,91.40
2018-01-24T07:07:16.641Z,91.40
2018-01-24T07:09:44.219Z,91.50
2018-01-24T07:12:23.738Z,91.50
2018-01-24T07:14:51.326Z,91.70
2018-01-24T07:17:19.654Z,91.60
2018-01-24T07:19:47.216Z,91.60
2018-01-24T07:22:14.794Z,91.50
2018-01-24T07:24:42.350Z,91.50
2018-01-24T07:27:09.931Z,91.60
2018-01-24T07:29:37.720Z,91.50
2018-01-24T07:32:06.068Z,92.00
2018-01-24T07:34:33.634Z,92.00
2018-01-24T07:37:01.214Z,92.10
2018-01-24T07:39:29.545Z,92.90
2018-01-24T07:41:57.121Z,92.90
2018-01-24T07:44:24.687Z,92.80
2018-01-24T07:46:52.248Z,92.00
2018-01-24T07:49:20.595Z,92.10
2018-01-24T07:51:48.164Z,92.10
2018-01-24T07:54:15.747Z,92.40
2018-01-24T07:56:43.372Z,92.40
2018-01-24T07:59:10.967Z,92.40
2018-01-24T08:01:38.526Z,92.00
2018-01-24T08:04:06.102Z,91.70
2018-01-24T08:06:34.423Z,91.20
2018-01-24T08:09:01.980Z,91.20
2018-01-24T08:11:29.555Z,90.30
2018-01-24T08:13:57.120Z,88.60
2018-01-24T08:16:24.689Z,86.50
2018-01-24T08:18:52.257Z,85.30
2018-01-24T08:21:19.830Z,85.40
2018-01-24T08:23:47.392Z,86.80
2018-01-24T08:26:14.967Z,86.80
2018-01-24T08:28:43.386Z,89.80
2018-01-24T08:31:10.972Z,89.70
2018-01-24T08:33:38.530Z,88.70
2018-01-24T08:36:06.096Z,88.50
2018-01-24T08:38:33.675Z,88.00
2018-01-24T08:41:01.998Z,85.70
2018-01-24T08:43:36.964Z,85.60
2018-01-24T08:45:57.151Z,84.60
2018-01-24T08:48:24.726Z,83.80
2018-01-24T08:50:52.277Z,83.60
2018-01-24T08:53:19.871Z,83.50
2018-01-24T08:55:47.435Z,81.90
2018-01-24T08:58:14.993Z,80.30
2018-01-24T09:00:42.582Z,79.40
2018-01-24T09:03:10.242Z,77.90
2018-01-24T09:05:37.813Z,77.50
2018-01-24T09:08:05.373Z,76.70
2018-01-24T09:10:32.962Z,76.10
2018-01-24T09:13:01.299Z,73.70
2018-01-24T09:15:28.888Z,73.60
2018-01-24T09:17:56.452Z,73.10
2018-01-24T09:20:24.027Z,70.90
2018-01-24T09:22:52.383Z,69.70
2018-01-24T09:25:19.959Z,69.70
2018-01-24T09:27:48.297Z,72.00
2018-01-24T09:30:15.850Z,71.50
2018-01-24T09:32:43.419Z,68.60
2018-01-24T09:35:10.991Z,71.20
2018-01-24T09:37:38.574Z,68.20
2018-01-24T09:40:06.143Z,67.10
2018-01-24T09:42:34.505Z,65.90
2018-01-24T09:45:02.065Z,65.90
2018-01-24T09:47:30.397Z,61.70
2018-01-24T09:49:57.979Z,61.50
2018-01-24T09:52:25.546Z,63.60
2018-01-24T09:54:53.135Z,64.30
2018-01-24T09:57:21.485Z,62.80
2018-01-24T09:59:49.061Z,62.80
2018-01-24T10:02:16.621Z,64.70
2018-01-24T10:04:44.212Z,60.70
2018-01-24T10:07:11.784Z,63.00
2018-01-24T10:09:39.346Z,61.40
2018-01-24T10:12:07.978Z,62.60
2018-01-24T10:14:35.547Z,61.00
2018-01-24T10:17:04.094Z,61.30
2018-01-24T10:19:32.267Z,61.80
2018-01-24T10:22:01.057Z,62.10
2018-01-24T10:24:29.228Z,62.10
2018-01-24T10:26:56.891Z,60.80
2018-01-24T10:29:24.450Z,62.20
2018-01-24T10:31:52.059Z,63.00
2018-01-24T10:34:20.402Z,60.30
2018-01-24T10:36:47.964Z,60.30
2018-01-24T10:39:15.542Z,61.60
2018-01-24T10:41:43.116Z,61.90
2018-01-24T10:44:11.483Z,61.90
2018-01-24T10:46:39.047Z,61.90
2018-01-24T10:49:07.404Z,56.10
2018-01-24T10:51:34.975Z,56.20
2018-01-24T10:54:02.561Z,61.00
2018-01-24T10:56:30.926Z,56.40
2018-01-24T10:58:58.486Z,56.30
2018-01-24T11:01:26.840Z,63.40
2018-01-24T11:03:54.415Z,63.30
2018-01-24T11:06:22.005Z,58.90
2018-01-24T11:08:50.325Z,63.50
2018-01-24T11:11:17.903Z,63.50
2018-01-24T11:13:45.475Z,63.40
2018-01-24T11:16:14.561Z,63.80
2018-01-24T11:18:42.114Z,63.20
2018-01-24T11:21:09.697Z,62.40
2018-01-24T11:23:38.761Z,60.30
2018-01-24T11:26:06.313Z,60.20
2018-01-24T11:28:33.886Z,59.60
2018-01-24T11:31:01.456Z,59.70
2018-01-24T11:33:29.035Z,60.40
2018-01-24T11:35:57.357Z,59.40
2018-01-24T11:38:24.939Z,59.30
2018-01-24T11:40:52.502Z,56.70
2018-01-24T11:43:20.107Z,55.80
2018-01-24T11:45:48.438Z,54.70
2018-01-24T11:48:15.999Z,54.60
2018-01-24T11:50:43.591Z,58.40
2018-01-24T11:53:11.996Z,58.10
2018-01-24T11:55:40.417Z,57.30
2018-01-24T11:58:07.983Z,57.20
2018-01-24T12:00:35.552Z,55.70
2018-01-24T12:03:04.613Z,61.10
2018-01-24T12:05:32.195Z,61.10
2018-01-24T12:07:59.759Z,57.40
2018-01-24T12:10:27.351Z,59.20
2018-01-24T12:12:55.674Z,56.60
2018-01-24T12:15:23.240Z,56.50
2018-01-24T12:17:50.823Z,57.90
2018-01-24T12:20:18.381Z,59.70
2018-01-24T12:22:45.953Z,58.50
2018-01-24T12:25:14.285Z,57.70
2018-01-24T12:27:41.894Z,57.60
2018-01-24T12:30:10.232Z,55.20
2018-01-24T12:32:37.813Z,55.10
2018-01-24T12:35:05.373Z,56.00
2018-01-24T12:37:32.943Z,58.60
2018-01-24T12:40:00.517Z,55.60
2018-01-24T12:42:28.852Z,52.90
2018-01-24T12:44:56.421Z,52.90
2018-01-24T12:47:23.978Z,50.60
2018-01-24T12:49:51.571Z,54.30
2018-01-24T12:52:19.895Z,54.00
2018-01-24T12:54:47.465Z,53.90
2018-01-24T12:57:15.021Z,54.40
2018-01-24T12:59:42.611Z,53.80
2018-01-24T13:02:10.933Z,55.70
2018-01-24T13:04:38.520Z,55.60
2018-01-24T13:07:06.172Z,56.70
2018-01-24T13:09:34.356Z,57.90
2018-01-24T13:12:02.851Z,57.20
2018-01-24T13:14:31.430Z,57.10
2018-01-24T13:17:00.550Z,54.50
2018-01-24T13:19:30.391Z,57.20
2018-01-24T13:21:59.198Z,55.10
2018-01-24T13:24:27.575Z,53.50
2018-01-24T13:26:55.332Z,53.50
2018-01-24T13:29:22.937Z,56.40
2018-01-24T13:31:50.499Z,56.30
2018-01-24T13:34:19.205Z,57.50
2018-01-24T13:36:46.792Z,54.90
2018-01-24T13:39:15.125Z,57.40
2018-01-24T13:41:44.367Z,57.50
2018-01-24T13:44:12.074Z,58.80
2018-01-24T13:46:40.650Z,58.60
2018-01-24T13:49:08.818Z,58.60
2018-01-24T13:51:36.417Z,60.90
2018-01-24T13:54:04.741Z,59.30
2018-01-24T13:56:33.556Z,59.30
2018-01-24T13:59:02.287Z,59.50
2018-01-24T14:01:30.100Z,60.60
2018-01-24T14:03:57.991Z,61.40
2018-01-24T14:06:25.567Z,62.50
2018-01-24T14:08:56.368Z,61.40
2018-01-24T14:11:25.806Z,60.80
2018-01-24T14:13:53.649Z,60.80
2018-01-24T14:16:23.372Z,60.50
2018-01-24T14:18:52.201Z,60.50
2018-01-24T14:21:20.642Z,59.30
2018-01-24T14:23:48.654Z,60.00
2018-01-24T14:26:17.672Z,58.80
2018-01-24T14:28:45.249Z,58.70
2018-01-24T14:31:14.531Z,57.70
2018-01-24T14:33:42.536Z,58.30
2018-01-24T14:36:12.007Z,60.00
2018-01-24T14:38:39.664Z,60.00
2018-01-24T14:41:07.330Z,60.00
2018-01-24T14:43:35.403Z,60.90
2018-01-24T14:46:03.906Z,61.40
2018-01-24T14:48:32.671Z,63.70
2018-01-24T14:51:01.501Z,63.70
2018-01-24T14:53:31.396Z,63.50
2018-01-24T14:56:01.541Z,65.60
2018-01-24T14:58:29.789Z,65.70
2018-01-24T15:00:58.013Z,67.50
2018-01-24T15:03:26.015Z,66.70
2018-01-24T15:05:53.780Z,66.70
2018-01-24T15:08:21.544Z,67.60
2018-01-24T15:10:49.921Z,66.40
2018-01-24T15:13:17.498Z,66.40
2018-01-24T15:15:46.129Z,68.40
2018-01-24T15:18:14.664Z,69.70
2018-01-24T15:20:42.236Z,69.70
2018-01-24T15:23:10.114Z,70.70
2018-01-24T15:25:37.862Z,71.60
2018-01-24T15:28:06.237Z,72.90
2018-01-24T15:30:33.960Z,72.50
2018-01-24T15:33:01.540Z,73.20
2018-01-24T15:35:29.106Z,73.80
2018-01-24T15:37:57.103Z,74.90
2018-01-24T15:40:24.717Z,73.90
2018-01-24T15:42:52.475Z,74.50
2018-01-24T15:45:20.430Z,73.50
2018-01-24T15:47:48.759Z,73.90
2018-01-24T15:50:16.349Z,73.90
2018-01-24T15:52:44.699Z,71.20
2018-01-24T15:55:12.523Z,71.20
2018-01-24T15:57:40.138Z,72.20
2018-01-24T16:00:07.712Z,72.70
2018-01-24T16:02:36.064Z,75.10
2018-01-24T16:05:03.693Z,75.00
2018-01-24T16:07:31.276Z,75.30
2018-01-24T16:09:58.841Z,75.20
2018-01-24T16:12:26.694Z,75.40
2018-01-24T16:14:55.027Z,75.00
2018-01-24T16:17:23.376Z,75.50
2018-01-24T16:19:50.949Z,75.50
2018-01-24T16:22:19.308Z,75.80
2018-01-24T16:24:46.904Z,75.80
2018-01-24T16:27:15.239Z,76.00
2018-01-24T16:29:42.823Z,75.90
2018-01-24T16:32:10.461Z,77.00
2018-01-24T16:34:38.053Z,77.10
2018-01-24T16:37:06.511Z,78.10
2018-01-24T16:39:34.090Z,78.10
2018-01-24T16:42:01.656Z,78.10
2018-01-24T16:44:30.012Z,79.30
2018-01-24T16:46:57.557Z,79.30
2018-01-24T16:49:25.110Z,79.00
2018-01-24T16:51:52.666Z,78.90
2018-01-24T16:54:20.230Z,79.30
2018-01-24T16:56:47.786Z,78.80
2018-01-24T16:59:15.335Z,79.60
2018-01-24T17:01:42.888Z,80.20
2018-01-24T17:04:10.433Z,79.20
2018-01-24T17:06:39.653Z,79.00
2018-01-24T17:09:07.335Z,78.80
2018-01-24T17:11:34.909Z,78.40
2018-01-24T17:14:02.457Z,78.60
2018-01-24T17:16:30.020Z,78.80
2018-01-24T17:18:57.580Z,78.40
2018-01-24T17:21:25.119Z,78.70
2018-01-24T17:23:52.686Z,79.10
2018-01-24T17:26:20.223Z,79.20
2018-01-24T17:28:47.797Z,79.60
2018-01-24T17:31:15.331Z,80.00
2018-01-24T17:33:42.900Z,80.40
2018-01-24T17:36:10.461Z,80.30
2018-01-24T17:38:39.698Z,81.00
2018-01-24T17:41:08.950Z,81.20
2018-01-24T17:43:37.349Z,81.10
2018-01-24T17:46:04.930Z,81.70
2018-01-24T17:48:32.727Z,81.70
2018-01-24T17:51:01.461Z,82.50
2018-01-24T17:53:29.902Z,82.50
2018-01-24T17:55:57.729Z,82.80
2018-01-24T17:58:26.088Z,82.20
2018-01-24T18:00:54.554Z,83.30
2018-01-24T18:03:22.255Z,82.70
2018-01-24T18:05:49.826Z,83.20
2018-01-24T18:08:17.388Z,83.90
2018-01-24T18:10:44.941Z,83.60
2018-01-24T18:13:13.283Z,83.80
2018-01-24T18:15:40.844Z,83.90
2018-01-24T18:18:08.423Z,83.80
2018-01-24T18:20:35.962Z,83.20
2018-01-24T18:23:03.549Z,82.50
2018-01-24T18:25:31.096Z,82.20
2018-01-24T18:27:58.641Z,82.10
2018-01-24T18:30:26.209Z,81.60
2018-01-24T18:32:53.760Z,81.20
2018-01-24T18:35:21.317Z,81.80
2018-01-24T18:37:48.874Z,81.50
2018-01-24T18:40:16.437Z,81.50
2018-01-24T18:42:43.989Z,81.70
2018-01-24T18:45:11.562Z,82.00
2018-01-24T18:47:39.149Z,82.60
2018-01-24T18:50:06.710Z,83.10
2018-01-24T18:52:34.285Z,83.10
2018-01-24T18:55:01.855Z,83.20
2018-01-24T18:57:30.190Z,83.20
2018-01-24T18:59:57.751Z,83.00
2018-01-24T19:02:25.325Z,82.80
2018-01-24T19:04:52.877Z,83.20
2018-01-24T19:07:20.438Z,83.10
2018-01-24T19:09:47.975Z,83.40
2018-01-24T19:12:15.550Z,83.60
2018-01-24T19:14:43.112Z,83.60
2018-01-24T19:17:10.955Z,83.60
2018-01-24T19:19:38.520Z,84.80
2018-01-24T19:22:06.074Z,83.90
2018-01-24T19:24:33.637Z,84.30
2018-01-24T19:27:01.189Z,83.30
2018-01-24T19:29:28.767Z,82.80
2018-01-24T19:31:56.317Z,83.20
2018-01-24T19:34:23.875Z,83.00
2018-01-24T19:36:51.427Z,83.90
2018-01-24T19:39:18.963Z,83.60
2018-01-24T19:41:47.106Z,83.20
2018-01-24T19:44:14.638Z,83.40
2018-01-24T19:46:42.200Z,83.70
2018-01-24T19:49:10.694Z,84.30
2018-01-24T19:51:38.247Z,83.30
2018-01-24T19:54:05.796Z,83.00
2018-01-24T19:56:33.356Z,83.10
2018-01-24T19:59:00.900Z,83.50
2018-01-24T20:01:28.468Z,84.50
2018-01-24T20:03:56.025Z,83.90
2018-01-24T20:06:23.573Z,83.30
2018-01-24T20:08:51.152Z,82.80
2018-01-24T20:11:18.696Z,82.90
2018-01-24T20:13:46.276Z,82.70
2018-01-24T20:16:13.840Z,82.50
2018-01-24T20:18:41.400Z,83.00
2018-01-24T20:21:08.934Z,83.10
2018-01-24T20:23:36.509Z,83.40
2018-01-24T20:26:04.053Z,84.70
2018-01-24T20:28:31.586Z,84.40
2018-01-24T20:30:59.183Z,83.50
2018-01-24T20:33:26.731Z,83.50
2018-01-24T20:35:54.292Z,83.50
2018-01-24T20:38:21.977Z,84.10
2018-01-24T20:40:49.549Z,84.10
2018-01-24T20:43:17.140Z,83.90
2018-01-24T20:45:45.481Z,83.20
2018-01-24T20:48:13.029Z,83.30
2018-01-24T20:50:40.572Z,83.60
2018-01-24T20:53:08.136Z,84.50
2018-01-24T20:55:35.703Z,84.20
2018-01-24T20:58:03.264Z,84.20
2018-01-24T21:00:30.822Z,84.20
2018-01-24T21:02:58.394Z,84.50
2018-01-24T21:05:25.960Z,83.80
2018-01-24T21:07:53.534Z,84.20
2018-01-24T21:10:21.070Z,83.40
2018-01-24T21:12:48.623Z,83.90
2018-01-24T21:15:16.187Z,83.60
2018-01-24T21:17:43.747Z,83.90
2018-01-24T21:20:11.321Z,83.60
2018-01-24T21:22:38.883Z,83.90
2018-01-24T21:25:06.449Z,84.40
2018-01-24T21:27:34.000Z,84.30
2018-01-24T21:30:13.588Z,83.90
2018-01-24T21:32:52.925Z,84.20
2018-01-24T21:35:33.543Z,84.00
2018-01-24T21:38:01.079Z,84.30
2018-01-24T21:40:28.654Z,84.70
2018-01-24T21:42:56.212Z,84.40
2018-01-24T21:45:23.747Z,84.20
2018-01-24T21:47:51.309Z,84.50
2018-01-24T21:50:18.871Z,84.90
2018-01-24T21:52:46.432Z,84.60
2018-01-24T21:55:13.994Z,85.60
2018-01-24T21:57:41.604Z,84.20
2018-01-24T22:00:09.916Z,83.90
2018-01-24T22:02:37.470Z,83.80
2018-01-24T22:05:05.074Z,84.00
2018-01-24T22:07:32.631Z,84.40
2018-01-24T22:10:00.202Z,84.60
2018-01-24T22:12:27.763Z,84.60
2018-01-24T22:14:55.328Z,84.40
2018-01-24T22:17:23.630Z,84.60
2018-01-24T22:19:51.201Z,84.60
2018-01-24T22:22:18.766Z,84.50
2018-01-24T22:24:46.323Z,84.40
2018-01-24T22:27:13.864Z,85.70
2018-01-24T22:29:41.402Z,85.90
2018-01-24T22:32:09.726Z,84.90
2018-01-24T22:34:37.259Z,84.90
2018-01-24T22:37:04.828Z,85.20
2018-01-24T22:39:32.391Z,84.40
2018-01-24T22:41:59.962Z,85.00
2018-01-24T22:44:27.526Z,84.90
2018-01-24T22:46:55.100Z,84.70
2018-01-24T22:49:22.657Z,85.20
2018-01-24T22:51:50.212Z,85.40
2018-01-24T22:54:17.794Z,85.10
2018-01-24T22:56:45.349Z,85.60
2018-01-24T22:59:12.926Z,86.00
2018-01-24T23:01:40.476Z,85.60
2018-01-24T23:04:08.046Z,85.60
2018-01-24T23:06:35.592Z,85.50
2018-01-24T23:09:03.156Z,86.50
2018-01-24T23:11:30.727Z,86.30
2018-01-24T23:13:58.266Z,86.00
2018-01-24T23:16:25.833Z,86.90
2018-01-24T23:18:53.399Z,86.30
2018-01-24T23:21:20.955Z,85.80
2018-01-24T23:23:48.500Z,85.60
2018-01-24T23:26:16.082Z,84.90
2018-01-24T23:28:43.646Z,85.00
2018-01-24T23:31:11.990Z,86.00
2018-01-24T23:33:39.555Z,86.00
2018-01-24T23:36:07.132Z,85.30
2018-01-24T23:38:34.676Z,85.20
2018-01-24T23:41:02.239Z,85.50
2018-01-24T23:43:29.819Z,85.00
2018-01-24T23:45:57.383Z,85.50
2018-01-24T23:48:25.714Z,85.70
2018-01-24T23:50:53.283Z,85.60
2018-01-24T23:53:20.844Z,85.50
2018-01-24T23:55:48.406Z,86.00
2018-01-24T23:58:15.995Z,87.30
